sensor_id;sensor_type;location;lat;lon;timestamp;temperature;humidity
20091;DHT22;10205;49.678;6.560;2023-05-16T00:02:14;19.00;51.70
20091;DHT22;10205;49.678;6.560;2023-05-16T00:04:41;19.00;51.80
20091;DHT22;10205;49.678;6.560;2023-05-16T00:07:08;19.00;51.80
20091;DHT22;10205;49.678;6.560;2023-05-16T00:09:37;19.00;51.80
20091;DHT22;10205;49.678;6.560;2023-05-16T00:12:04;19.00;51.90
20091;DHT22;10205;49.678;6.560;2023-05-16T00:14:32;19.00;51.80
20091;DHT22;10205;49.678;6.560;2023-05-16T00:17:00;19.00;51.70
20091;DHT22;10205;49.678;6.560;2023-05-16T00:19:29;19.00;51.80
20091;DHT22;10205;49.678;6.560;2023-05-16T00:21:57;19.00;51.70
20091;DHT22;10205;49.678;6.560;2023-05-16T00:24:24;19.00;51.50
20091;DHT22;10205;49.678;6.560;2023-05-16T00:26:52;19.00;51.40
20091;DHT22;10205;49.678;6.560;2023-05-16T00:29:19;19.00;51.70
20091;DHT22;10205;49.678;6.560;2023-05-16T00:31:48;19.00;51.60
20091;DHT22;10205;49.678;6.560;2023-05-16T00:34:16;18.90;51.70
20091;DHT22;10205;49.678;6.560;2023-05-16T00:36:43;18.90;51.80
20091;DHT22;10205;49.678;6.560;2023-05-16T00:39:10;18.90;51.80
20091;DHT22;10205;49.678;6.560;2023-05-16T00:41:37;18.90;51.90
20091;DHT22;10205;49.678;6.560;2023-05-16T00:44:06;18.90;51.80
20091;DHT22;10205;49.678;6.560;2023-05-16T00:46:33;18.90;51.90
20091;DHT22;10205;49.678;6.560;2023-05-16T00:49:00;18.90;51.90
20091;DHT22;10205;49.678;6.560;2023-05-16T00:51:28;18.90;51.90
20091;DHT22;10205;49.678;6.560;2023-05-16T00:53:56;18.90;51.80
20091;DHT22;10205;49.678;6.560;2023-05-16T00:56:23;18.90;51.80
20091;DHT22;10205;49.678;6.560;2023-05-16T00:58:51;18.90;51.80
20091;DHT22;10205;49.678;6.560;2023-05-16T01:01:22;18.90;51.70
20091;DHT22;10205;49.678;6.560;2023-05-16T01:03:50;18.90;51.80
20091;DHT22;10205;49.678;6.560;2023-05-16T01:06:18;18.90;51.70
20091;DHT22;10205;49.678;6.560;2023-05-16T01:08:46;18.90;51.80
20091;DHT22;10205;49.678;6.560;2023-05-16T01:11:21;18.80;51.70
20091;DHT22;10205;49.678;6.560;2023-05-16T01:13:59;18.80;51.90
20091;DHT22;10205;49.678;6.560;2023-05-16T01:16:46;18.70;51.90
20091;DHT22;10205;49.678;6.560;2023-05-16T01:19:31;18.70;51.90
20091;DHT22;10205;49.678;6.560;2023-05-16T01:22:35;18.70;51.80
20091;DHT22;10205;49.678;6.560;2023-05-16T01:25:25;18.70;51.70
20091;DHT22;10205;49.678;6.560;2023-05-16T01:28:04;18.60;51.70
20091;DHT22;10205;49.678;6.560;2023-05-16T01:30:35;18.60;51.80
20091;DHT22;10205;49.678;6.560;2023-05-16T01:33:05;18.60;51.80
20091;DHT22;10205;49.678;6.560;2023-05-16T01:35:35;18.50;51.70
20091;DHT22;10205;49.678;6.560;2023-05-16T01:38:15;18.50;51.70
20091;DHT22;10205;49.678;6.560;2023-05-16T01:40:54;18.40;51.60
20091;DHT22;10205;49.678;6.560;2023-05-16T01:43:33;18.40;51.50
20091;DHT22;10205;49.678;6.560;2023-05-16T01:46:06;18.30;51.60
20091;DHT22;10205;49.678;6.560;2023-05-16T01:48:40;18.20;51.70
20091;DHT22;10205;49.678;6.560;2023-05-16T01:51:15;18.20;51.70
20091;DHT22;10205;49.678;6.560;2023-05-16T01:53:43;18.20;51.80
20091;DHT22;10205;49.678;6.560;2023-05-16T01:56:15;18.10;51.90
20091;DHT22;10205;49.678;6.560;2023-05-16T01:58:45;18.10;52.00
20091;DHT22;10205;49.678;6.560;2023-05-16T02:01:14;18.00;51.90
20091;DHT22;10205;49.678;6.560;2023-05-16T02:03:41;18.00;52.00
20091;DHT22;10205;49.678;6.560;2023-05-16T02:06:08;18.00;52.00
20091;DHT22;10205;49.678;6.560;2023-05-16T02:08:35;17.90;52.10
20091;DHT22;10205;49.678;6.560;2023-05-16T02:11:02;17.90;52.20
20091;DHT22;10205;49.678;6.560;2023-05-16T02:13:29;17.80;52.20
20091;DHT22;10205;49.678;6.560;2023-05-16T02:15:58;17.80;52.30
20091;DHT22;10205;49.678;6.560;2023-05-16T02:18:25;17.80;52.30
20091;DHT22;10205;49.678;6.560;2023-05-16T02:20:53;17.80;52.20
20091;DHT22;10205;49.678;6.560;2023-05-16T02:23:20;17.70;52.20
20091;DHT22;10205;49.678;6.560;2023-05-16T02:25:47;17.70;52.20
20091;DHT22;10205;49.678;6.560;2023-05-16T02:28:14;17.70;52.30
20091;DHT22;10205;49.678;6.560;2023-05-16T02:30:41;17.60;52.40
20091;DHT22;10205;49.678;6.560;2023-05-16T02:33:10;17.60;52.40
20091;DHT22;10205;49.678;6.560;2023-05-16T02:35:37;17.60;52.50
20091;DHT22;10205;49.678;6.560;2023-05-16T02:38:04;17.60;52.50
20091;DHT22;10205;49.678;6.560;2023-05-16T02:40:31;17.60;52.60
20091;DHT22;10205;49.678;6.560;2023-05-16T02:42:58;17.50;52.60
20091;DHT22;10205;49.678;6.560;2023-05-16T02:45:25;17.50;52.60
20091;DHT22;10205;49.678;6.560;2023-05-16T02:47:52;17.50;52.60
20091;DHT22;10205;49.678;6.560;2023-05-16T02:50:23;17.40;52.60
20091;DHT22;10205;49.678;6.560;2023-05-16T02:52:50;17.40;52.80
20091;DHT22;10205;49.678;6.560;2023-05-16T02:55:17;17.40;52.80
20091;DHT22;10205;49.678;6.560;2023-05-16T02:57:44;17.40;52.90
20091;DHT22;10205;49.678;6.560;2023-05-16T03:00:12;17.30;52.80
20091;DHT22;10205;49.678;6.560;2023-05-16T03:02:40;17.30;52.90
20091;DHT22;10205;49.678;6.560;2023-05-16T03:05:07;17.30;53.00
20091;DHT22;10205;49.678;6.560;2023-05-16T03:07:37;17.20;53.10
20091;DHT22;10205;49.678;6.560;2023-05-16T03:10:05;17.20;53.20
20091;DHT22;10205;49.678;6.560;2023-05-16T03:12:33;17.20;53.30
20091;DHT22;10205;49.678;6.560;2023-05-16T03:15:00;17.20;53.30
20091;DHT22;10205;49.678;6.560;2023-05-16T03:17:28;17.10;53.40
20091;DHT22;10205;49.678;6.560;2023-05-16T03:19:55;17.10;53.50
20091;DHT22;10205;49.678;6.560;2023-05-16T03:22:22;17.10;53.50
20091;DHT22;10205;49.678;6.560;2023-05-16T03:24:50;17.10;53.60
20091;DHT22;10205;49.678;6.560;2023-05-16T03:27:17;17.10;53.70
20091;DHT22;10205;49.678;6.560;2023-05-16T03:29:48;17.10;53.60
20091;DHT22;10205;49.678;6.560;2023-05-16T03:32:15;17.10;53.60
20091;DHT22;10205;49.678;6.560;2023-05-16T03:34:42;17.10;53.70
20091;DHT22;10205;49.678;6.560;2023-05-16T03:37:09;17.10;53.70
20091;DHT22;10205;49.678;6.560;2023-05-16T03:39:39;17.20;53.80
20091;DHT22;10205;49.678;6.560;2023-05-16T03:42:07;17.10;53.70
20091;DHT22;10205;49.678;6.560;2023-05-16T03:44:34;17.20;53.90
20091;DHT22;10205;49.678;6.560;2023-05-16T03:47:01;17.10;53.80
20091;DHT22;10205;49.678;6.560;2023-05-16T03:49:28;17.10;53.80
20091;DHT22;10205;49.678;6.560;2023-05-16T03:51:55;17.10;53.90
20091;DHT22;10205;49.678;6.560;2023-05-16T03:54:23;17.10;53.80
20091;DHT22;10205;49.678;6.560;2023-05-16T03:56:50;17.10;53.90
20091;DHT22;10205;49.678;6.560;2023-05-16T03:59:18;17.00;53.90
20091;DHT22;10205;49.678;6.560;2023-05-16T04:01:45;17.10;54.10
20091;DHT22;10205;49.678;6.560;2023-05-16T04:04:13;17.00;54.10
20091;DHT22;10205;49.678;6.560;2023-05-16T04:06:40;17.00;54.10
20091;DHT22;10205;49.678;6.560;2023-05-16T04:09:07;17.00;54.20
20091;DHT22;10205;49.678;6.560;2023-05-16T04:11:34;17.00;54.30
20091;DHT22;10205;49.678;6.560;2023-05-16T04:14:03;16.90;54.30
20091;DHT22;10205;49.678;6.560;2023-05-16T04:16:31;16.90;54.40
20091;DHT22;10205;49.678;6.560;2023-05-16T04:18:58;16.90;54.60
20091;DHT22;10205;49.678;6.560;2023-05-16T04:21:25;16.90;54.70
20091;DHT22;10205;49.678;6.560;2023-05-16T04:23:52;16.80;54.50
20091;DHT22;10205;49.678;6.560;2023-05-16T04:26:19;16.80;54.60
20091;DHT22;10205;49.678;6.560;2023-05-16T04:28:47;16.80;54.70
20091;DHT22;10205;49.678;6.560;2023-05-16T04:31:14;16.70;54.70
20091;DHT22;10205;49.678;6.560;2023-05-16T04:33:43;16.70;54.80
20091;DHT22;10205;49.678;6.560;2023-05-16T04:36:10;16.60;54.80
20091;DHT22;10205;49.678;6.560;2023-05-16T04:38:37;16.60;54.80
20091;DHT22;10205;49.678;6.560;2023-05-16T04:41:04;16.50;54.80
20091;DHT22;10205;49.678;6.560;2023-05-16T04:43:31;16.50;54.90
20091;DHT22;10205;49.678;6.560;2023-05-16T04:45:58;16.50;55.10
20091;DHT22;10205;49.678;6.560;2023-05-16T04:48:25;16.40;55.10
20091;DHT22;10205;49.678;6.560;2023-05-16T04:50:54;16.40;55.40
20091;DHT22;10205;49.678;6.560;2023-05-16T04:53:21;16.30;55.50
20091;DHT22;10205;49.678;6.560;2023-05-16T04:55:48;16.30;55.40
20091;DHT22;10205;49.678;6.560;2023-05-16T04:58:15;16.30;55.50
20091;DHT22;10205;49.678;6.560;2023-05-16T05:00:45;16.30;55.70
20091;DHT22;10205;49.678;6.560;2023-05-16T05:03:12;16.20;56.00
20091;DHT22;10205;49.678;6.560;2023-05-16T05:05:39;16.30;55.90
20091;DHT22;10205;49.678;6.560;2023-05-16T05:08:08;16.20;55.90
20091;DHT22;10205;49.678;6.560;2023-05-16T05:10:35;16.20;55.90
20091;DHT22;10205;49.678;6.560;2023-05-16T05:13:02;16.20;56.10
20091;DHT22;10205;49.678;6.560;2023-05-16T05:15:30;16.20;56.10
20091;DHT22;10205;49.678;6.560;2023-05-16T05:17:57;16.10;56.00
20091;DHT22;10205;49.678;6.560;2023-05-16T05:20:24;16.10;56.00
20091;DHT22;10205;49.678;6.560;2023-05-16T05:22:52;16.10;56.10
20091;DHT22;10205;49.678;6.560;2023-05-16T05:25:20;16.10;56.20
20091;DHT22;10205;49.678;6.560;2023-05-16T05:27:48;16.00;56.30
20091;DHT22;10205;49.678;6.560;2023-05-16T05:30:15;16.00;56.30
20091;DHT22;10205;49.678;6.560;2023-05-16T05:32:42;16.00;56.30
20091;DHT22;10205;49.678;6.560;2023-05-16T05:35:09;15.90;56.30
20091;DHT22;10205;49.678;6.560;2023-05-16T05:37:36;15.90;56.30
20091;DHT22;10205;49.678;6.560;2023-05-16T05:40:04;15.90;56.30
20091;DHT22;10205;49.678;6.560;2023-05-16T05:42:33;15.90;56.60
20091;DHT22;10205;49.678;6.560;2023-05-16T05:45:01;15.90;56.50
20091;DHT22;10205;49.678;6.560;2023-05-16T05:47:28;15.90;56.50
20091;DHT22;10205;49.678;6.560;2023-05-16T05:49:55;15.90;56.60
20091;DHT22;10205;49.678;6.560;2023-05-16T05:52:23;15.90;56.70
20091;DHT22;10205;49.678;6.560;2023-05-16T05:54:52;15.80;56.60
20091;DHT22;10205;49.678;6.560;2023-05-16T05:57:20;15.80;56.70
20091;DHT22;10205;49.678;6.560;2023-05-16T05:59:48;15.80;56.80
20091;DHT22;10205;49.678;6.560;2023-05-16T06:02:15;15.80;56.90
20091;DHT22;10205;49.678;6.560;2023-05-16T06:04:42;15.80;56.70
20091;DHT22;10205;49.678;6.560;2023-05-16T06:07:09;15.80;56.90
20091;DHT22;10205;49.678;6.560;2023-05-16T06:09:36;15.80;56.90
20091;DHT22;10205;49.678;6.560;2023-05-16T06:12:04;15.80;56.90
20091;DHT22;10205;49.678;6.560;2023-05-16T06:14:31;15.80;56.90
20091;DHT22;10205;49.678;6.560;2023-05-16T06:17:00;15.70;56.90
20091;DHT22;10205;49.678;6.560;2023-05-16T06:19:27;15.70;57.00
20091;DHT22;10205;49.678;6.560;2023-05-16T06:21:54;15.70;57.00
20091;DHT22;10205;49.678;6.560;2023-05-16T06:24:21;15.70;57.00
20091;DHT22;10205;49.678;6.560;2023-05-16T06:26:48;15.70;57.10
20091;DHT22;10205;49.678;6.560;2023-05-16T06:29:15;15.70;57.00
20091;DHT22;10205;49.678;6.560;2023-05-16T06:31:42;15.70;56.90
20091;DHT22;10205;49.678;6.560;2023-05-16T06:34:11;15.70;56.90
20091;DHT22;10205;49.678;6.560;2023-05-16T06:36:38;15.60;57.00
20091;DHT22;10205;49.678;6.560;2023-05-16T06:39:05;15.60;57.00
20091;DHT22;10205;49.678;6.560;2023-05-16T06:41:32;15.60;57.00
20091;DHT22;10205;49.678;6.560;2023-05-16T06:43:59;15.60;57.10
20091;DHT22;10205;49.678;6.560;2023-05-16T06:46:26;15.50;56.90
20091;DHT22;10205;49.678;6.560;2023-05-16T06:48:53;15.50;57.00
20091;DHT22;10205;49.678;6.560;2023-05-16T06:51:21;15.40;57.00
20091;DHT22;10205;49.678;6.560;2023-05-16T06:53:48;15.40;57.70
20091;DHT22;10205;49.678;6.560;2023-05-16T06:56:15;15.40;57.00
20091;DHT22;10205;49.678;6.560;2023-05-16T06:58:42;15.30;57.00
20091;DHT22;10205;49.678;6.560;2023-05-16T07:01:09;15.30;57.00
20091;DHT22;10205;49.678;6.560;2023-05-16T07:03:36;15.30;57.10
20091;DHT22;10205;49.678;6.560;2023-05-16T07:06:04;15.20;57.10
20091;DHT22;10205;49.678;6.560;2023-05-16T07:08:32;15.20;57.20
20091;DHT22;10205;49.678;6.560;2023-05-16T07:11:01;15.20;57.30
20091;DHT22;10205;49.678;6.560;2023-05-16T07:13:28;15.20;57.60
20091;DHT22;10205;49.678;6.560;2023-05-16T07:15:55;15.20;57.40
20091;DHT22;10205;49.678;6.560;2023-05-16T07:18:22;15.10;57.40
20091;DHT22;10205;49.678;6.560;2023-05-16T07:20:49;15.10;57.30
20091;DHT22;10205;49.678;6.560;2023-05-16T07:23:16;15.10;57.30
20091;DHT22;10205;49.678;6.560;2023-05-16T07:25:45;15.10;57.30
20091;DHT22;10205;49.678;6.560;2023-05-16T07:28:12;15.10;57.40
20091;DHT22;10205;49.678;6.560;2023-05-16T07:30:39;15.00;57.40
20091;DHT22;10205;49.678;6.560;2023-05-16T07:33:06;15.00;57.40
20091;DHT22;10205;49.678;6.560;2023-05-16T07:35:33;15.00;57.30
20091;DHT22;10205;49.678;6.560;2023-05-16T07:38:00;15.00;57.30
20091;DHT22;10205;49.678;6.560;2023-05-16T07:40:27;15.00;57.30
20091;DHT22;10205;49.678;6.560;2023-05-16T07:42:56;15.00;57.30
20091;DHT22;10205;49.678;6.560;2023-05-16T07:45:23;15.00;57.30
20091;DHT22;10205;49.678;6.560;2023-05-16T07:47:50;15.00;57.30
20091;DHT22;10205;49.678;6.560;2023-05-16T07:50:17;15.00;57.20
20091;DHT22;10205;49.678;6.560;2023-05-16T07:52:45;15.00;57.30
20091;DHT22;10205;49.678;6.560;2023-05-16T07:55:12;15.00;57.10
20091;DHT22;10205;49.678;6.560;2023-05-16T07:57:39;15.00;57.00
20091;DHT22;10205;49.678;6.560;2023-05-16T08:00:10;15.00;56.90
20091;DHT22;10205;49.678;6.560;2023-05-16T08:02:38;15.00;57.00
20091;DHT22;10205;49.678;6.560;2023-05-16T08:05:06;15.00;57.10
20091;DHT22;10205;49.678;6.560;2023-05-16T08:07:34;15.00;57.20
20091;DHT22;10205;49.678;6.560;2023-05-16T08:10:01;15.00;57.00
20091;DHT22;10205;49.678;6.560;2023-05-16T08:12:28;15.00;56.90
20091;DHT22;10205;49.678;6.560;2023-05-16T08:14:55;15.00;57.00
20091;DHT22;10205;49.678;6.560;2023-05-16T08:17:24;15.00;57.00
20091;DHT22;10205;49.678;6.560;2023-05-16T08:19:51;15.00;57.20
20091;DHT22;10205;49.678;6.560;2023-05-16T08:22:18;15.00;56.90
20091;DHT22;10205;49.678;6.560;2023-05-16T08:24:45;15.00;56.60
20091;DHT22;10205;49.678;6.560;2023-05-16T08:27:12;15.00;56.60
20091;DHT22;10205;49.678;6.560;2023-05-16T08:29:39;15.00;56.70
20091;DHT22;10205;49.678;6.560;2023-05-16T08:32:10;15.00;56.60
20091;DHT22;10205;49.678;6.560;2023-05-16T08:34:38;15.10;56.50
20091;DHT22;10205;49.678;6.560;2023-05-16T08:37:05;15.10;56.30
20091;DHT22;10205;49.678;6.560;2023-05-16T08:39:32;15.10;56.40
20091;DHT22;10205;49.678;6.560;2023-05-16T08:41:59;15.10;56.30
20091;DHT22;10205;49.678;6.560;2023-05-16T08:44:28;15.20;56.40
20091;DHT22;10205;49.678;6.560;2023-05-16T08:46:56;15.20;56.20
20091;DHT22;10205;49.678;6.560;2023-05-16T08:49:29;15.30;56.20
20091;DHT22;10205;49.678;6.560;2023-05-16T08:51:59;15.30;55.90
20091;DHT22;10205;49.678;6.560;2023-05-16T08:54:28;15.40;55.80
20091;DHT22;10205;49.678;6.560;2023-05-16T08:56:56;15.40;55.70
20091;DHT22;10205;49.678;6.560;2023-05-16T08:59:24;15.40;55.60
20091;DHT22;10205;49.678;6.560;2023-05-16T09:01:51;15.50;55.50
20091;DHT22;10205;49.678;6.560;2023-05-16T09:04:19;15.50;56.10
20091;DHT22;10205;49.678;6.560;2023-05-16T09:06:46;15.60;55.40
20091;DHT22;10205;49.678;6.560;2023-05-16T09:09:15;15.60;55.40
20091;DHT22;10205;49.678;6.560;2023-05-16T09:11:42;15.70;55.40
20091;DHT22;10205;49.678;6.560;2023-05-16T09:14:09;15.70;55.10
20091;DHT22;10205;49.678;6.560;2023-05-16T09:16:36;15.80;55.00
20091;DHT22;10205;49.678;6.560;2023-05-16T09:19:04;15.90;54.80
20091;DHT22;10205;49.678;6.560;2023-05-16T09:21:32;15.90;54.50
20091;DHT22;10205;49.678;6.560;2023-05-16T09:24:03;16.00;54.30
20091;DHT22;10205;49.678;6.560;2023-05-16T09:26:35;16.00;53.80
20091;DHT22;10205;49.678;6.560;2023-05-16T09:29:09;16.00;53.80
20091;DHT22;10205;49.678;6.560;2023-05-16T09:31:38;16.10;53.90
20091;DHT22;10205;49.678;6.560;2023-05-16T09:34:07;16.10;53.80
20091;DHT22;10205;49.678;6.560;2023-05-16T09:36:37;16.20;53.80
20091;DHT22;10205;49.678;6.560;2023-05-16T09:39:05;16.20;53.70
20091;DHT22;10205;49.678;6.560;2023-05-16T09:41:34;16.30;53.70
20091;DHT22;10205;49.678;6.560;2023-05-16T09:44:03;16.30;53.50
20091;DHT22;10205;49.678;6.560;2023-05-16T09:46:33;16.40;53.40
20091;DHT22;10205;49.678;6.560;2023-05-16T09:49:00;16.40;53.00
20091;DHT22;10205;49.678;6.560;2023-05-16T09:51:30;16.50;53.10
20091;DHT22;10205;49.678;6.560;2023-05-16T09:53:58;16.50;53.10
20091;DHT22;10205;49.678;6.560;2023-05-16T09:56:25;16.60;53.00
20091;DHT22;10205;49.678;6.560;2023-05-16T09:58:53;16.60;53.10
20091;DHT22;10205;49.678;6.560;2023-05-16T10:01:20;16.60;52.80
20091;DHT22;10205;49.678;6.560;2023-05-16T10:03:49;16.70;52.60
20091;DHT22;10205;49.678;6.560;2023-05-16T10:06:18;16.70;52.20
20091;DHT22;10205;49.678;6.560;2023-05-16T10:08:46;16.80;51.90
20091;DHT22;10205;49.678;6.560;2023-05-16T10:11:15;16.80;52.30
20091;DHT22;10205;49.678;6.560;2023-05-16T10:13:45;16.90;51.40
20091;DHT22;10205;49.678;6.560;2023-05-16T10:16:21;16.90;51.10
20091;DHT22;10205;49.678;6.560;2023-05-16T10:18:49;16.90;51.10
20091;DHT22;10205;49.678;6.560;2023-05-16T10:21:17;16.90;51.40
20091;DHT22;10205;49.678;6.560;2023-05-16T10:23:49;17.00;50.80
20091;DHT22;10205;49.678;6.560;2023-05-16T10:26:19;17.00;50.70
20091;DHT22;10205;49.678;6.560;2023-05-16T10:28:48;17.10;50.50
20091;DHT22;10205;49.678;6.560;2023-05-16T10:31:17;17.10;50.30
20091;DHT22;10205;49.678;6.560;2023-05-16T10:33:45;17.20;50.60
20091;DHT22;10205;49.678;6.560;2023-05-16T10:36:13;17.20;50.30
20091;DHT22;10205;49.678;6.560;2023-05-16T10:38:42;17.30;50.00
20091;DHT22;10205;49.678;6.560;2023-05-16T10:41:12;17.30;49.90
20091;DHT22;10205;49.678;6.560;2023-05-16T10:43:43;17.40;50.10
20091;DHT22;10205;49.678;6.560;2023-05-16T10:46:11;17.40;49.70
20091;DHT22;10205;49.678;6.560;2023-05-16T10:48:41;17.50;49.50
20091;DHT22;10205;49.678;6.560;2023-05-16T10:51:32;17.60;49.40
20091;DHT22;10205;49.678;6.560;2023-05-16T10:54:04;17.60;48.70
20091;DHT22;10205;49.678;6.560;2023-05-16T10:56:34;17.70;49.20
20091;DHT22;10205;49.678;6.560;2023-05-16T10:59:01;17.70;49.30
20091;DHT22;10205;49.678;6.560;2023-05-16T11:01:31;17.80;49.50
20091;DHT22;10205;49.678;6.560;2023-05-16T11:04:16;17.90;49.20
20091;DHT22;10205;49.678;6.560;2023-05-16T11:06:45;17.90;48.20
20091;DHT22;10205;49.678;6.560;2023-05-16T11:09:23;18.00;48.90
20091;DHT22;10205;49.678;6.560;2023-05-16T11:11:57;18.00;48.10
20091;DHT22;10205;49.678;6.560;2023-05-16T11:14:27;18.10;48.70
20091;DHT22;10205;49.678;6.560;2023-05-16T11:17:00;18.20;48.50
20091;DHT22;10205;49.678;6.560;2023-05-16T11:19:38;18.20;47.80
20091;DHT22;10205;49.678;6.560;2023-05-16T11:22:12;18.20;48.00
20091;DHT22;10205;49.678;6.560;2023-05-16T11:24:52;18.30;48.20
20091;DHT22;10205;49.678;6.560;2023-05-16T11:27:22;18.40;47.40
20091;DHT22;10205;49.678;6.560;2023-05-16T11:29:51;18.50;47.30
20091;DHT22;10205;49.678;6.560;2023-05-16T11:32:19;18.50;47.80
20091;DHT22;10205;49.678;6.560;2023-05-16T11:34:49;18.60;47.10
20091;DHT22;10205;49.678;6.560;2023-05-16T11:37:18;18.60;46.90
20091;DHT22;10205;49.678;6.560;2023-05-16T11:39:46;18.70;46.90
20091;DHT22;10205;49.678;6.560;2023-05-16T11:42:13;18.70;47.00
20091;DHT22;10205;49.678;6.560;2023-05-16T11:44:40;18.80;47.10
20091;DHT22;10205;49.678;6.560;2023-05-16T11:47:07;18.90;46.80
20091;DHT22;10205;49.678;6.560;2023-05-16T11:49:34;19.00;46.50
20091;DHT22;10205;49.678;6.560;2023-05-16T11:52:04;19.00;46.20
20091;DHT22;10205;49.678;6.560;2023-05-16T11:54:31;19.10;45.70
20091;DHT22;10205;49.678;6.560;2023-05-16T11:56:59;19.20;46.00
20091;DHT22;10205;49.678;6.560;2023-05-16T11:59:26;19.20;45.60
20091;DHT22;10205;49.678;6.560;2023-05-16T12:01:54;19.30;45.70
20091;DHT22;10205;49.678;6.560;2023-05-16T12:04:21;19.30;45.50
20091;DHT22;10205;49.678;6.560;2023-05-16T12:06:58;19.40;45.30
20091;DHT22;10205;49.678;6.560;2023-05-16T12:09:28;19.40;44.20
20091;DHT22;10205;49.678;6.560;2023-05-16T12:11:55;19.50;44.40
20091;DHT22;10205;49.678;6.560;2023-05-16T12:14:23;19.50;44.50
20091;DHT22;10205;49.678;6.560;2023-05-16T12:16:51;19.60;44.40
20091;DHT22;10205;49.678;6.560;2023-05-16T12:19:19;19.60;44.40
20091;DHT22;10205;49.678;6.560;2023-05-16T12:21:50;19.60;44.50
20091;DHT22;10205;49.678;6.560;2023-05-16T12:24:18;19.70;44.50
20091;DHT22;10205;49.678;6.560;2023-05-16T12:26:47;19.70;43.80
20091;DHT22;10205;49.678;6.560;2023-05-16T12:29:14;19.80;43.90
20091;DHT22;10205;49.678;6.560;2023-05-16T12:31:41;19.80;43.70
20091;DHT22;10205;49.678;6.560;2023-05-16T12:34:15;19.80;43.80
20091;DHT22;10205;49.678;6.560;2023-05-16T12:36:43;19.90;43.10
20091;DHT22;10205;49.678;6.560;2023-05-16T12:39:11;19.90;43.60
20091;DHT22;10205;49.678;6.560;2023-05-16T12:41:41;20.00;43.40
20091;DHT22;10205;49.678;6.560;2023-05-16T12:44:14;20.00;43.50
20091;DHT22;10205;49.678;6.560;2023-05-16T12:46:44;20.10;43.10
20091;DHT22;10205;49.678;6.560;2023-05-16T12:49:13;20.20;43.30
20091;DHT22;10205;49.678;6.560;2023-05-16T12:51:47;20.20;43.10
20091;DHT22;10205;49.678;6.560;2023-05-16T12:54:15;20.30;42.30
20091;DHT22;10205;49.678;6.560;2023-05-16T12:56:43;20.30;42.80
20091;DHT22;10205;49.678;6.560;2023-05-16T12:59:10;20.40;42.80
20091;DHT22;10205;49.678;6.560;2023-05-16T13:01:39;20.40;42.30
20091;DHT22;10205;49.678;6.560;2023-05-16T13:04:08;20.50;42.60
20091;DHT22;10205;49.678;6.560;2023-05-16T13:06:39;20.50;42.20
20091;DHT22;10205;49.678;6.560;2023-05-16T13:09:07;20.50;42.20
20091;DHT22;10205;49.678;6.560;2023-05-16T13:11:34;20.60;42.10
20091;DHT22;10205;49.678;6.560;2023-05-16T13:14:01;20.60;42.30
20091;DHT22;10205;49.678;6.560;2023-05-16T13:16:29;20.70;41.50
20091;DHT22;10205;49.678;6.560;2023-05-16T13:18:57;20.70;41.70
20091;DHT22;10205;49.678;6.560;2023-05-16T13:21:24;20.70;41.50
20091;DHT22;10205;49.678;6.560;2023-05-16T13:23:52;20.70;41.60
20091;DHT22;10205;49.678;6.560;2023-05-16T13:26:19;20.80;41.70
20091;DHT22;10205;49.678;6.560;2023-05-16T13:28:46;20.80;41.40
20091;DHT22;10205;49.678;6.560;2023-05-16T13:31:17;20.80;41.10
20091;DHT22;10205;49.678;6.560;2023-05-16T13:33:44;20.90;41.30
20091;DHT22;10205;49.678;6.560;2023-05-16T13:36:12;20.90;41.30
20091;DHT22;10205;49.678;6.560;2023-05-16T13:38:40;20.90;40.50
20091;DHT22;10205;49.678;6.560;2023-05-16T13:41:07;21.00;40.50
20091;DHT22;10205;49.678;6.560;2023-05-16T13:43:34;21.00;40.60
20091;DHT22;10205;49.678;6.560;2023-05-16T13:46:01;21.10;40.50
20091;DHT22;10205;49.678;6.560;2023-05-16T13:48:28;21.10;40.30
20091;DHT22;10205;49.678;6.560;2023-05-16T13:50:55;21.10;40.00
20091;DHT22;10205;49.678;6.560;2023-05-16T13:53:23;21.10;40.10
20091;DHT22;10205;49.678;6.560;2023-05-16T13:55:50;21.10;40.20
20091;DHT22;10205;49.678;6.560;2023-05-16T13:58:17;21.10;40.60
20091;DHT22;10205;49.678;6.560;2023-05-16T14:00:44;21.10;40.40
20091;DHT22;10205;49.678;6.560;2023-05-16T14:03:11;21.20;40.30
20091;DHT22;10205;49.678;6.560;2023-05-16T14:05:38;21.20;40.50
20091;DHT22;10205;49.678;6.560;2023-05-16T14:08:05;21.20;40.20
20091;DHT22;10205;49.678;6.560;2023-05-16T14:10:34;21.20;39.70
20091;DHT22;10205;49.678;6.560;2023-05-16T14:13:01;21.30;39.50
20091;DHT22;10205;49.678;6.560;2023-05-16T14:15:28;21.30;39.60
20091;DHT22;10205;49.678;6.560;2023-05-16T14:17:55;21.30;40.00
20091;DHT22;10205;49.678;6.560;2023-05-16T14:20:23;21.30;40.00
20091;DHT22;10205;49.678;6.560;2023-05-16T14:22:53;21.30;40.00
20091;DHT22;10205;49.678;6.560;2023-05-16T14:25:21;21.30;40.80
20091;DHT22;10205;49.678;6.560;2023-05-16T14:27:49;21.40;40.30
20091;DHT22;10205;49.678;6.560;2023-05-16T14:30:16;21.40;40.40
20091;DHT22;10205;49.678;6.560;2023-05-16T14:32:44;21.40;40.00
20091;DHT22;10205;49.678;6.560;2023-05-16T14:35:11;21.50;39.60
20091;DHT22;10205;49.678;6.560;2023-05-16T14:37:39;21.50;40.20
20091;DHT22;10205;49.678;6.560;2023-05-16T14:40:07;21.50;40.60
20091;DHT22;10205;49.678;6.560;2023-05-16T14:42:34;21.50;40.10
20091;DHT22;10205;49.678;6.560;2023-05-16T14:45:03;21.60;39.60
20091;DHT22;10205;49.678;6.560;2023-05-16T14:47:31;21.50;39.50
20091;DHT22;10205;49.678;6.560;2023-05-16T14:49:58;21.60;39.20
20091;DHT22;10205;49.678;6.560;2023-05-16T14:52:26;21.60;39.60
20091;DHT22;10205;49.678;6.560;2023-05-16T14:54:53;21.60;39.40
20091;DHT22;10205;49.678;6.560;2023-05-16T14:57:20;21.60;39.20
20091;DHT22;10205;49.678;6.560;2023-05-16T14:59:47;21.60;38.90
20091;DHT22;10205;49.678;6.560;2023-05-16T15:02:16;21.60;39.60
20091;DHT22;10205;49.678;6.560;2023-05-16T15:04:43;21.60;39.20
20091;DHT22;10205;49.678;6.560;2023-05-16T15:07:11;21.60;39.10
20091;DHT22;10205;49.678;6.560;2023-05-16T15:09:38;21.60;39.40
20091;DHT22;10205;49.678;6.560;2023-05-16T15:12:06;21.60;39.50
20091;DHT22;10205;49.678;6.560;2023-05-16T15:14:33;21.60;38.90
20091;DHT22;10205;49.678;6.560;2023-05-16T15:17:00;21.70;39.10
20091;DHT22;10205;49.678;6.560;2023-05-16T15:19:29;21.70;38.70
20091;DHT22;10205;49.678;6.560;2023-05-16T15:21:56;21.60;38.80
20091;DHT22;10205;49.678;6.560;2023-05-16T15:24:24;21.60;38.70
20091;DHT22;10205;49.678;6.560;2023-05-16T15:26:51;21.70;38.00
20091;DHT22;10205;49.678;6.560;2023-05-16T15:29:18;21.70;38.20
20091;DHT22;10205;49.678;6.560;2023-05-16T15:31:45;21.70;38.40
20091;DHT22;10205;49.678;6.560;2023-05-16T15:34:13;21.70;38.80
20091;DHT22;10205;49.678;6.560;2023-05-16T15:36:42;21.70;38.30
20091;DHT22;10205;49.678;6.560;2023-05-16T15:39:09;21.70;37.80